createdAt,value
2018-10-12T15:04:47.355Z,25.80
2018-10-12T15:07:15.477Z,25.60
2018-10-12T15:09:43.601Z,25.60
2018-10-12T15:12:11.799Z,25.60
2018-10-12T15:14:51.175Z,25.50
2018-10-12T15:17:19.806Z,25.60
2018-10-12T15:19:47.976Z,25.50
2018-10-12T15:22:16.114Z,25.60
2018-10-12T15:24:44.302Z,25.40
2018-10-12T15:27:12.471Z,25.50
2018-10-12T15:29:40.653Z,25.40
2018-10-12T15:32:08.856Z,25.40
2018-10-12T15:34:37.078Z,25.40
2018-10-12T15:37:05.326Z,25.30
2018-10-12T15:39:33.500Z,25.30
2018-10-12T15:42:03.208Z,25.20
2018-10-12T15:44:31.372Z,25.10
2018-10-12T15:46:59.787Z,25.00
2018-10-12T15:49:28.276Z,25.00
2018-10-12T15:51:56.479Z,24.90
2018-10-12T15:54:24.617Z,24.80
2018-10-12T15:56:52.779Z,24.60
2018-10-12T15:59:20.989Z,24.60
2018-10-12T16:01:49.245Z,24.50
2018-10-12T16:04:17.409Z,24.40
2018-10-12T16:06:45.571Z,24.20
2018-10-12T16:09:13.737Z,24.20
2018-10-12T16:11:41.872Z,24.10
2018-10-12T16:14:10.048Z,24.00
2018-10-12T16:16:38.273Z,23.90
2018-10-12T16:19:06.461Z,23.80
2018-10-12T16:21:34.697Z,23.70
2018-10-12T16:24:08.475Z,23.70
2018-10-12T16:26:36.686Z,23.60
2018-10-12T16:29:05.098Z,23.50
2018-10-12T16:31:33.193Z,23.50
2018-10-12T16:34:01.419Z,23.40
2018-10-12T16:36:29.654Z,23.40
2018-10-12T16:38:57.923Z,23.30
2018-10-12T16:41:26.109Z,23.40
2018-10-12T16:43:54.344Z,23.30
2018-10-12T16:46:23.125Z,23.30
2018-10-12T16:48:51.344Z,23.20
2018-10-12T16:51:19.532Z,23.10
2018-10-12T16:53:47.670Z,23.00
2018-10-12T16:56:15.882Z,23.00
2018-10-12T16:58:44.433Z,23.00
2018-10-12T17:01:12.598Z,22.90
2018-10-12T17:03:40.759Z,22.80
2018-10-12T17:06:09.013Z,22.70
2018-10-12T17:08:37.152Z,22.70
2018-10-12T17:11:05.317Z,22.50
2018-10-12T17:13:33.523Z,22.40
2018-10-12T17:16:01.856Z,22.40
2018-10-12T17:18:30.054Z,22.30
2018-10-12T17:20:58.222Z,22.20
2018-10-12T17:23:26.422Z,22.10
2018-10-12T17:25:54.586Z,22.00
2018-10-12T17:28:22.824Z,21.90
2018-10-12T17:30:51.069Z,21.90
2018-10-12T17:33:19.217Z,21.80
2018-10-12T17:35:47.401Z,21.70
2018-10-12T17:38:15.545Z,21.60
2018-10-12T17:40:43.706Z,21.50
2018-10-12T17:43:11.927Z,21.50
2018-10-12T17:45:40.083Z,21.40
2018-10-12T17:48:08.246Z,21.30
2018-10-12T17:50:36.612Z,21.30
2018-10-12T17:53:06.029Z,21.20
2018-10-12T17:55:34.193Z,21.10
2018-10-12T17:58:02.436Z,21.10
2018-10-12T18:00:30.751Z,21.10
2018-10-12T18:02:58.814Z,21.10
2018-10-12T18:05:27.015Z,21.10
2018-10-12T18:07:55.228Z,21.20
2018-10-12T18:10:23.389Z,21.30
2018-10-12T18:12:51.533Z,21.40
2018-10-12T18:15:19.711Z,21.40
2018-10-12T18:17:47.833Z,21.30
2018-10-12T18:20:16.064Z,21.20
2018-10-12T18:22:44.230Z,21.20
2018-10-12T18:25:12.398Z,21.10
2018-10-12T18:27:40.562Z,21.00
2018-10-12T18:30:08.861Z,20.90
2018-10-12T18:32:37.061Z,20.80
2018-10-12T18:35:05.206Z,20.80
2018-10-12T18:37:33.479Z,20.90
2018-10-12T18:40:01.630Z,20.90
2018-10-12T18:42:29.983Z,20.90
2018-10-12T18:44:58.120Z,20.90
2018-10-12T18:47:26.280Z,20.80
2018-10-12T18:49:54.493Z,20.70
2018-10-12T18:52:22.670Z,20.70
2018-10-12T18:54:50.794Z,20.60
2018-10-12T18:57:18.969Z,20.50
2018-10-12T18:59:47.153Z,20.50
2018-10-12T19:02:15.521Z,20.40
2018-10-12T19:04:43.874Z,20.40
2018-10-12T19:07:11.898Z,20.20
2018-10-12T19:09:40.046Z,20.30
2018-10-12T19:12:08.429Z,20.00
2018-10-12T19:14:36.597Z,19.90
2018-10-12T19:17:05.399Z,19.90
2018-10-12T19:19:33.801Z,19.90
2018-10-12T19:22:01.875Z,19.80
2018-10-12T19:24:30.035Z,19.80
2018-10-12T19:26:58.200Z,19.70
2018-10-12T19:29:26.329Z,19.70
2018-10-12T19:31:54.660Z,19.70
2018-10-12T19:34:22.748Z,19.70
2018-10-12T19:36:51.152Z,19.80
2018-10-12T19:39:19.290Z,19.70
2018-10-12T19:41:47.514Z,19.70
2018-10-12T19:44:15.673Z,19.60
2018-10-12T19:46:43.830Z,19.50
2018-10-12T19:49:12.005Z,19.50
2018-10-12T19:51:40.189Z,19.50
2018-10-12T19:54:08.405Z,19.40
2018-10-12T19:56:36.628Z,19.40
2018-10-12T19:59:04.839Z,19.30
2018-10-12T20:01:33.009Z,19.30
2018-10-12T20:04:01.118Z,19.30
2018-10-12T20:06:29.451Z,19.30
2018-10-12T20:08:57.656Z,19.30
2018-10-12T20:11:25.860Z,19.30
2018-10-12T20:13:54.040Z,19.30
2018-10-12T20:16:22.184Z,19.30
2018-10-12T20:18:50.388Z,19.20
2018-10-12T20:21:18.636Z,19.20
2018-10-12T20:23:46.820Z,19.20
2018-10-12T20:26:15.297Z,19.20
2018-10-12T20:28:43.700Z,19.20
2018-10-12T20:31:11.941Z,19.10
2018-10-12T20:33:40.089Z,19.00
2018-10-12T20:36:08.239Z,19.10
2018-10-12T20:38:36.735Z,19.00
2018-10-12T20:41:05.185Z,19.10
2018-10-12T20:43:33.309Z,19.10
2018-10-12T20:46:01.508Z,19.20
2018-10-12T20:48:29.673Z,19.10
2018-10-12T20:50:57.801Z,19.10
2018-10-12T20:53:26.034Z,19.10
2018-10-12T20:55:54.255Z,19.10
2018-10-12T20:58:22.445Z,19.00
2018-10-12T21:00:50.610Z,18.90
2018-10-12T21:03:18.745Z,18.80
2018-10-12T21:05:47.034Z,18.80
2018-10-12T21:08:15.202Z,18.80
2018-10-12T21:10:43.366Z,18.70
2018-10-12T21:13:11.553Z,18.60
2018-10-12T21:15:39.708Z,18.60
2018-10-12T21:18:07.859Z,18.60
2018-10-12T21:20:36.050Z,18.50
2018-10-12T21:23:04.203Z,18.50
2018-10-12T21:25:32.373Z,18.40
2018-10-12T21:28:00.574Z,18.40
2018-10-12T21:30:28.713Z,18.40
2018-10-12T21:32:57.044Z,18.40
2018-10-12T21:35:25.501Z,18.40
2018-10-12T21:37:53.628Z,18.40
2018-10-12T21:40:21.893Z,18.40
2018-10-12T21:42:50.869Z,18.40
2018-10-12T21:45:19.009Z,18.40
2018-10-12T21:47:47.315Z,18.40
2018-10-12T21:50:15.454Z,18.40
2018-10-12T21:52:43.602Z,18.40
2018-10-12T21:55:11.770Z,18.40
2018-10-12T21:57:39.940Z,18.40
2018-10-12T22:00:08.181Z,18.40
2018-10-12T22:02:36.294Z,18.40
2018-10-12T22:05:04.444Z,18.30
2018-10-12T22:07:32.653Z,18.40
2018-10-12T22:10:00.898Z,18.40
2018-10-12T22:12:29.141Z,18.50
2018-10-12T22:14:57.306Z,18.60
2018-10-12T22:17:25.458Z,18.60
2018-10-12T22:19:54.212Z,18.60
2018-10-12T22:22:22.387Z,18.70
2018-10-12T22:24:50.926Z,18.70
2018-10-12T22:27:19.153Z,18.70
2018-10-12T22:29:47.304Z,18.70
2018-10-12T22:32:15.501Z,18.70
2018-10-12T22:34:43.711Z,18.80
2018-10-12T22:37:11.887Z,18.90
2018-10-12T22:39:42.334Z,18.80
2018-10-12T22:42:11.273Z,18.70
2018-10-12T22:44:39.646Z,18.70
2018-10-12T22:47:08.353Z,18.70
2018-10-12T22:49:36.499Z,18.80
2018-10-12T22:52:04.820Z,18.70
2018-10-12T22:54:32.964Z,18.70
2018-10-12T22:57:01.108Z,18.70
2018-10-12T22:59:29.329Z,18.60
2018-10-12T23:01:57.744Z,18.70
2018-10-12T23:04:25.928Z,18.70
2018-10-12T23:06:54.180Z,18.70
2018-10-12T23:09:22.409Z,18.70
2018-10-12T23:11:50.545Z,18.60
2018-10-12T23:14:18.762Z,18.70
2018-10-12T23:16:46.900Z,18.70
2018-10-12T23:19:15.053Z,18.60
2018-10-12T23:21:43.262Z,18.60
2018-10-12T23:24:11.413Z,18.60
2018-10-12T23:26:39.558Z,18.60
2018-10-12T23:29:07.731Z,18.60
2018-10-12T23:31:35.880Z,18.60
2018-10-12T23:34:09.140Z,18.60
2018-10-12T23:36:37.389Z,18.50
2018-10-12T23:39:08.762Z,18.50
2018-10-12T23:41:36.991Z,18.50
2018-10-12T23:44:05.277Z,18.40
2018-10-12T23:46:33.404Z,18.30
2018-10-12T23:49:01.564Z,18.30
2018-10-12T23:51:30.036Z,18.20
2018-10-12T23:53:58.281Z,18.20
2018-10-12T23:56:26.446Z,18.20
2018-10-12T23:58:54.613Z,18.10
